Time;durP1;ratioP1;P1;durP2;ratioP2;P2;SDS_P1;SDS_P2;PMS_P1;PMS_P2;Temp;Humidity;BMP_temperature;BMP_pressure;BME280_temperature;BME280_humidity;BME280_pressure;Samples;Min_cycle;Max_cycle;Signal;HPM_P1;HPM_P2
2022/11/13 00:00:30;;;;;;;10.33;6.60;;;5.30;99.90;;;;;;5073507;28;20457;-84
2022/11/13 00:02:55;;;;;;;7.77;5.40;;;5.30;99.90;;;;;;5073601;28;20865;-84
2022/11/13 00:05:21;;;;;;;7.70;5.60;;;5.00;99.90;;;;;;5073360;28;20163;-84
2022/11/13 00:07:47;;;;;;;7.70;6.90;;;4.90;99.90;;;;;;5073903;28;20179;-85
2022/11/13 00:10:12;;;;;;;10.37;6.00;;;4.90;99.90;;;;;;5073953;28;20166;-86
2022/11/13 00:12:38;;;;;;;8.33;5.97;;;4.80;99.90;;;;;;5073858;28;20585;-85
2022/11/13 00:15:04;;;;;;;14.13;7.80;;;4.90;99.90;;;;;;5056211;28;20187;-87
2022/11/13 00:17:29;;;;;;;11.47;6.20;;;5.20;99.90;;;;;;5056169;28;20323;-85
2022/11/13 00:19:55;;;;;;;12.07;6.03;;;5.20;99.90;;;;;;5073813;28;20421;-86
2022/11/13 00:22:20;;;;;;;11.17;6.80;;;5.10;99.90;;;;;;5073665;28;20173;-85
2022/11/13 00:24:46;;;;;;;9.40;6.60;;;5.00;99.90;;;;;;5055590;28;20177;-86
2022/11/13 00:27:14;;;;;;;6.70;5.33;;;4.90;99.90;;;;;;5055752;28;20543;-85
2022/11/13 00:29:40;;;;;;;9.10;5.27;;;4.80;99.90;;;;;;5055548;28;20174;-86
2022/11/13 00:32:06;;;;;;;9.10;5.50;;;4.80;99.90;;;;;;5073220;28;20433;-85
2022/11/13 00:34:31;;;;;;;7.10;5.77;;;4.60;99.90;;;;;;5054987;28;20168;-87
2022/11/13 00:36:57;;;;;;;6.37;4.43;;;4.70;99.90;;;;;;5055113;28;20219;-86
2022/11/13 00:39:22;;;;;;;9.60;6.00;;;4.70;99.90;;;;;;5073057;28;20529;-86
2022/11/13 00:41:48;;;;;;;9.30;5.87;;;4.70;99.90;;;;;;5055374;28;20184;-86
2022/11/13 00:44:13;;;;;;;8.83;6.37;;;5.20;99.90;;;;;;5073184;28;20258;-85
2022/11/13 00:46:39;;;;;;;12.50;5.90;;;5.30;99.90;;;;;;5073277;28;20174;-85
2022/11/13 00:49:04;;;;;;;8.37;5.30;;;5.30;99.90;;;;;;5072666;28;20175;-85
2022/11/13 00:51:30;;;;;;;8.07;5.37;;;5.30;99.90;;;;;;5073376;28;20166;-85
2022/11/13 00:53:56;;;;;;;7.60;6.27;;;5.20;99.90;;;;;;5073070;28;20662;-86
2022/11/13 00:56:24;;;;;;;7.70;6.30;;;5.20;99.90;;;;;;5072804;28;20293;-85
2022/11/13 00:58:49;;;;;;;10.70;6.90;;;5.20;99.90;;;;;;5072523;28;20164;-86
2022/11/13 01:01:17;;;;;;;11.90;8.97;;;5.40;99.90;;;;;;5073060;28;20930;-85
2022/11/13 01:03:43;;;;;;;9.20;6.70;;;5.40;99.90;;;;;;5072989;28;20618;-85
2022/11/13 01:06:15;;;;;;;8.93;6.80;;;5.20;99.90;;;;;;5073158;28;20400;-84
2022/11/13 01:08:41;;;;;;;8.13;6.40;;;5.20;99.90;;;;;;5072869;28;20418;-88
2022/11/13 01:11:15;;;;;;;8.07;5.87;;;5.20;99.90;;;;;;5072678;28;20463;-89
2022/11/13 01:13:43;;;;;;;11.60;6.50;;;5.10;99.90;;;;;;5072218;28;20188;-86
2022/11/13 01:16:10;;;;;;;8.13;6.10;;;5.10;99.90;;;;;;5071609;28;20476;-86
2022/11/13 01:18:36;;;;;;;8.57;5.70;;;5.20;99.90;;;;;;5071854;28;20403;-86
2022/11/13 01:21:07;;;;;;;11.47;7.43;;;5.10;99.90;;;;;;5072180;28;20423;-88
2022/11/13 01:23:33;;;;;;;15.00;8.70;;;5.30;99.90;;;;;;5072850;28;20179;-89
2022/11/13 01:26:09;;;;;;;11.10;7.70;;;5.40;99.90;;;;;;5073193;28;20502;-89
2022/11/13 01:28:35;;;;;;;9.53;6.23;;;5.40;99.90;;;;;;5073467;28;20170;-92
2022/11/13 01:31:05;;;;;;;10.37;6.90;;;5.30;99.90;;;;;;5073401;28;20811;-86
2022/11/13 01:33:30;;;;;;;8.90;6.40;;;5.40;99.90;;;;;;5073119;28;20170;-86
2022/11/13 01:36:01;;;;;;;12.57;7.10;;;5.30;99.90;;;;;;5073420;28;20909;-90
2022/11/13 01:38:26;;;;;;;11.23;6.63;;;5.20;99.90;;;;;;5073183;28;20535;-92
2022/11/13 01:40:52;;;;;;;12.90;7.43;;;5.30;99.90;;;;;;5073083;28;20418;-84
2022/11/13 01:43:40;;;;;;;12.57;8.20;;;5.20;99.90;;;;;;5073212;28;20179;-83
2022/11/13 01:46:06;;;;;;;11.20;6.90;;;5.30;99.90;;;;;;5073084;28;20206;-89
2022/11/13 01:48:39;;;;;;;11.23;5.97;;;5.20;99.90;;;;;;5073049;28;20467;-85
2022/11/13 01:51:13;;;;;;;9.03;6.97;;;5.10;99.90;;;;;;5055376;28;20232;-85
2022/11/13 01:53:40;;;;;;;9.17;7.27;;;5.00;99.90;;;;;;5073108;28;20761;-85
2022/11/13 01:56:07;;;;;;;9.70;7.40;;;4.90;99.90;;;;;;5072853;28;20525;-85
2022/11/13 01:58:33;;;;;;;9.67;6.13;;;4.80;99.90;;;;;;5072688;28;20935;-86
2022/11/13 02:01:23;;;;;;;10.57;7.37;;;4.80;99.90;;;;;;5073039;28;20417;-88
2022/11/13 02:03:50;;;;;;;8.23;5.53;;;4.80;99.90;;;;;;5073420;28;20412;-88
2022/11/13 02:06:16;;;;;;;8.80;6.47;;;4.80;99.90;;;;;;5074082;28;20395;-85
2022/11/13 02:08:43;;;;;;;8.37;6.47;;;4.80;99.90;;;;;;5056133;28;20558;-86
2022/11/13 02:11:09;;;;;;;7.97;6.17;;;4.70;99.90;;;;;;5077702;28;20495;-86
2022/11/13 02:13:36;;;;;;;12.23;7.20;;;4.70;99.90;;;;;;5076005;28;20417;-88
2022/11/13 02:16:02;;;;;;;8.73;6.00;;;4.60;99.90;;;;;;5076791;28;20491;-86
2022/11/13 02:18:29;;;;;;;8.27;5.40;;;4.60;99.90;;;;;;5075937;28;20466;-87
2022/11/13 02:21:05;;;;;;;8.97;5.77;;;4.50;99.90;;;;;;5058498;28;20169;-88
2022/11/13 02:23:46;;;;;;;5.63;4.80;;;4.50;99.90;;;;;;5076100;28;20407;-84
2022/11/13 02:26:12;;;;;;;10.40;7.03;;;4.40;99.90;;;;;;5057679;28;20472;-86
2022/11/13 02:28:40;;;;;;;11.90;6.47;;;4.50;99.90;;;;;;5075604;28;20805;-86
2022/11/13 02:31:12;;;;;;;10.30;7.80;;;4.70;99.90;;;;;;5075439;28;20203;-85
2022/11/13 02:33:38;;;;;;;10.23;6.00;;;4.70;99.90;;;;;;5075103;28;20420;-86
2022/11/13 02:36:05;;;;;;;11.60;8.50;;;4.80;99.90;;;;;;5075298;28;20475;-85
2022/11/13 02:38:39;;;;;;;11.13;8.30;;;4.90;99.90;;;;;;5075325;28;20469;-87
2022/11/13 02:41:05;;;;;;;12.47;8.60;;;4.90;99.90;;;;;;5075370;28;20411;-85
2022/11/13 02:43:30;;;;;;;13.13;8.10;;;5.00;99.90;;;;;;5075133;28;20415;-86
2022/11/13 02:46:16;;;;;;;15.30;8.90;;;5.00;99.90;;;;;;5075141;28;20177;-84
2022/11/13 02:48:41;;;;;;;11.33;8.03;;;5.00;99.90;;;;;;5074109;28;20223;-87
2022/11/13 02:51:07;;;;;;;11.90;7.30;;;5.00;99.90;;;;;;5074979;28;20446;-85
2022/11/13 02:53:32;;;;;;;10.87;8.23;;;5.10;99.90;;;;;;5075226;28;20197;-87
2022/11/13 02:55:58;;;;;;;11.00;7.70;;;5.10;99.90;;;;;;5075648;28;20201;-91
2022/11/13 02:58:23;;;;;;;10.30;7.40;;;4.90;99.90;;;;;;5058108;28;20223;-89
2022/11/13 03:00:49;;;;;;;11.80;7.33;;;4.80;99.90;;;;;;5057793;28;20305;-87
2022/11/13 03:03:14;;;;;;;8.87;6.33;;;4.70;99.90;;;;;;5076173;28;20174;-86
2022/11/13 03:05:40;;;;;;;11.23;8.87;;;4.60;99.90;;;;;;5076089;28;20167;-89
2022/11/13 03:08:06;;;;;;;9.93;6.13;;;4.50;99.90;;;;;;5058252;28;20176;-91
2022/11/13 03:10:31;;;;;;;10.90;8.47;;;4.50;99.90;;;;;;5075984;28;20254;-85
2022/11/13 03:12:57;;;;;;;11.37;7.57;;;4.40;99.90;;;;;;5057543;28;20470;-88
2022/11/13 03:15:23;;;;;;;9.43;6.63;;;4.40;99.90;;;;;;5075741;28;20177;-87
2022/11/13 03:17:48;;;;;;;8.00;6.50;;;4.40;99.90;;;;;;5075736;28;20411;-90
2022/11/13 03:20:14;;;;;;;12.73;9.00;;;4.40;99.90;;;;;;5057363;28;20199;-87
2022/11/13 03:22:40;;;;;;;9.40;6.87;;;4.30;99.90;;;;;;5075612;28;20168;-89
2022/11/13 03:25:15;;;;;;;11.83;7.90;;;4.20;99.90;;;;;;5076152;28;20422;-89
2022/11/13 03:27:40;;;;;;;9.40;6.43;;;4.10;99.90;;;;;;5075879;28;20222;-89
2022/11/13 03:30:06;;;;;;;8.20;5.63;;;4.10;99.90;;;;;;5057104;28;20814;-85
2022/11/13 03:32:32;;;;;;;8.93;6.57;;;4.00;99.90;;;;;;5073354;28;20170;-85
2022/11/13 03:34:57;;;;;;;9.33;6.37;;;4.00;99.90;;;;;;5073646;28;20791;-87
2022/11/13 03:37:25;;;;;;;11.07;7.90;;;4.10;99.90;;;;;;5074066;28;20300;-85
2022/11/13 03:39:51;;;;;;;13.87;8.90;;;4.50;99.90;;;;;;5074113;28;20174;-86
2022/11/13 03:42:16;;;;;;;10.67;7.50;;;4.50;99.90;;;;;;5074030;28;20440;-85
2022/11/13 03:44:42;;;;;;;9.07;6.50;;;4.40;99.90;;;;;;5073982;28;20245;-86
2022/11/13 03:47:07;;;;;;;10.20;8.00;;;4.50;99.90;;;;;;5055658;28;20182;-85
2022/11/13 03:49:33;;;;;;;9.60;7.77;;;4.40;99.90;;;;;;5073615;28;20211;-85
2022/11/13 03:51:58;;;;;;;12.97;8.47;;;4.20;99.90;;;;;;5073791;28;20255;-85
2022/11/13 03:54:24;;;;;;;10.40;7.93;;;4.10;99.90;;;;;;5073838;28;20635;-86
2022/11/13 03:56:49;;;;;;;9.80;7.30;;;4.00;99.90;;;;;;5073512;28;20206;-84
2022/11/13 03:59:15;;;;;;;12.40;6.53;;;3.90;99.90;;;;;;5055715;28;20221;-85
2022/11/13 04:01:40;;;;;;;12.77;8.30;;;3.90;99.90;;;;;;5073522;28;20262;-85
2022/11/13 04:04:09;;;;;;;9.57;6.57;;;3.90;99.90;;;;;;5073229;28;20172;-85
2022/11/13 04:06:34;;;;;;;10.63;8.30;;;3.90;99.90;;;;;;5073265;28;20178;-85
2022/11/13 04:09:00;;;;;;;13.67;7.17;;;4.20;99.90;;;;;;5073535;28;20423;-85
2022/11/13 04:11:25;;;;;;;14.50;9.00;;;4.40;99.90;;;;;;5055533;28;20439;-86
2022/11/13 04:13:51;;;;;;;14.30;8.50;;;4.50;99.90;;;;;;5073315;28;20185;-86
2022/11/13 04:16:16;;;;;;;12.80;8.27;;;4.50;99.90;;;;;;5055252;28;20217;-85
2022/11/13 04:18:42;;;;;;;13.60;9.27;;;4.60;99.90;;;;;;5072919;28;20213;-84
2022/11/13 04:21:08;;;;;;;12.60;8.67;;;4.70;99.90;;;;;;5073302;28;20210;-84
2022/11/13 04:23:34;;;;;;;11.07;7.63;;;4.70;99.90;;;;;;5073832;28;20744;-83
2022/11/13 04:25:59;;;;;;;12.47;10.13;;;4.70;99.90;;;;;;5073709;28;20165;-84
2022/11/13 04:28:25;;;;;;;12.70;8.70;;;4.70;99.90;;;;;;5073716;28;20211;-86
2022/11/13 04:30:53;;;;;;;13.47;9.83;;;4.60;99.90;;;;;;5073684;28;20747;-85
2022/11/13 04:33:18;;;;;;;14.70;9.60;;;4.60;99.90;;;;;;5073364;28;20173;-89
2022/11/13 04:35:44;;;;;;;13.93;9.30;;;4.70;99.90;;;;;;5074159;28;20523;-85
2022/11/13 04:38:11;;;;;;;14.83;8.60;;;4.70;99.90;;;;;;5072150;28;20174;-82
2022/11/13 04:40:37;;;;;;;10.93;8.23;;;4.60;99.90;;;;;;5073469;28;20933;-84
2022/11/13 04:43:03;;;;;;;12.47;9.10;;;4.50;99.90;;;;;;5074030;28;20419;-87
2022/11/13 04:45:28;;;;;;;11.57;8.07;;;4.40;99.90;;;;;;5072531;28;20415;-88
2022/11/13 04:47:54;;;;;;;11.07;8.00;;;4.40;99.90;;;;;;5073299;28;20174;-84
2022/11/13 04:50:20;;;;;;;8.47;7.03;;;4.20;99.90;;;;;;5073574;28;20170;-88
2022/11/13 04:52:49;;;;;;;13.70;8.90;;;4.20;99.90;;;;;;5073307;28;20416;-88
2022/11/13 04:55:14;;;;;;;15.50;8.87;;;4.30;99.90;;;;;;5073500;28;20173;-85
2022/11/13 04:57:40;;;;;;;14.03;9.80;;;4.60;99.90;;;;;;5073403;28;20459;-84
2022/11/13 05:00:07;;;;;;;10.97;7.80;;;4.60;99.90;;;;;;5073070;28;20212;-88
2022/11/13 05:02:33;;;;;;;12.17;8.33;;;4.60;99.90;;;;;;5072865;28;20483;-88
2022/11/13 05:04:59;;;;;;;15.67;9.20;;;4.50;99.90;;;;;;5072956;28;20445;-84
2022/11/13 05:07:28;;;;;;;12.70;8.20;;;4.50;99.90;;;;;;5072937;28;20481;-85
2022/11/13 05:09:54;;;;;;;13.50;8.30;;;4.50;99.90;;;;;;5072719;28;20173;-84
2022/11/13 05:12:20;;;;;;;14.83;9.30;;;4.50;99.90;;;;;;5072890;28;20416;-88
2022/11/13 05:14:45;;;;;;;13.33;7.80;;;4.40;99.90;;;;;;5073024;28;20413;-87
2022/11/13 05:17:11;;;;;;;10.40;7.20;;;4.30;99.90;;;;;;5071596;28;20996;-86
2022/11/13 05:19:37;;;;;;;15.60;8.40;;;4.20;99.90;;;;;;5054585;28;20275;-87
2022/11/13 05:22:04;;;;;;;14.00;6.67;;;4.00;99.90;;;;;;5071644;28;20856;-86
2022/11/13 05:24:29;;;;;;;12.33;8.37;;;4.00;99.90;;;;;;5072661;28;20412;-83
2022/11/13 05:26:55;;;;;;;9.93;7.00;;;4.00;99.90;;;;;;5072490;28;20974;-83
2022/11/13 05:29:21;;;;;;;11.40;7.83;;;4.10;99.90;;;;;;5071230;28;20205;-83
2022/11/13 05:31:47;;;;;;;11.00;7.50;;;4.20;99.90;;;;;;5072562;28;20204;-83
2022/11/13 05:34:12;;;;;;;15.97;7.77;;;4.30;99.90;;;;;;5071944;28;20173;-82
2022/11/13 05:36:38;;;;;;;15.67;10.30;;;4.40;99.90;;;;;;5071887;28;20470;-82
2022/11/13 05:39:04;;;;;;;15.20;8.83;;;4.50;99.90;;;;;;5072663;28;20188;-82
2022/11/13 05:41:30;;;;;;;11.10;7.97;;;4.40;99.90;;;;;;5072552;28;20195;-83
2022/11/13 05:43:57;;;;;;;12.10;8.80;;;4.40;99.90;;;;;;5073642;28;20419;-84
2022/11/13 05:46:25;;;;;;;11.03;8.53;;;4.40;99.90;;;;;;5076707;28;20177;-84
2022/11/13 05:48:56;;;;;;;10.43;6.87;;;4.40;99.90;;;;;;5076532;28;20427;-85
2022/11/13 05:51:25;;;;;;;10.97;8.60;;;4.40;99.90;;;;;;5075810;28;20519;-85
2022/11/13 05:53:51;;;;;;;13.03;8.67;;;4.40;99.90;;;;;;5076311;28;20463;-85
2022/11/13 05:56:25;;;;;;;13.90;8.37;;;4.30;99.90;;;;;;5076699;28;20912;-85
2022/11/13 05:58:52;;;;;;;10.97;7.53;;;4.20;99.90;;;;;;5076389;28;20505;-85
2022/11/13 06:01:27;;;;;;;12.27;7.77;;;4.20;99.90;;;;;;5076247;28;20519;-85
2022/11/13 06:03:55;;;;;;;9.63;6.20;;;4.20;99.90;;;;;;5075837;28;20397;-85
2022/11/13 06:06:22;;;;;;;9.87;6.50;;;3.90;99.90;;;;;;5076368;28;20785;-85
2022/11/13 06:08:48;;;;;;;12.77;7.53;;;4.00;99.90;;;;;;5058600;28;20781;-86
2022/11/13 06:11:17;;;;;;;10.90;7.80;;;3.90;99.90;;;;;;5076176;28;20911;-86
2022/11/13 06:13:42;;;;;;;11.20;7.40;;;3.90;99.90;;;;;;5076147;28;20407;-86
2022/11/13 06:16:11;;;;;;;15.40;9.00;;;4.10;99.90;;;;;;5075913;28;20477;-84
2022/11/13 06:18:37;;;;;;;10.80;7.80;;;4.20;99.90;;;;;;5075599;28;20177;-84
2022/11/13 06:21:24;;;;;;;14.23;8.63;;;4.30;99.90;;;;;;5075899;28;20440;-84
2022/11/13 06:23:50;;;;;;;11.30;8.17;;;4.40;99.90;;;;;;5076013;28;20789;-86
2022/11/13 06:26:21;;;;;;;15.77;8.30;;;4.40;99.90;;;;;;5076101;28;20472;-86
2022/11/13 06:28:47;;;;;;;16.10;9.27;;;4.30;99.90;;;;;;5076088;28;20526;-85
2022/11/13 06:31:19;;;;;;;14.57;9.97;;;4.40;99.90;;;;;;5057691;28;20422;-85
2022/11/13 06:33:45;;;;;;;16.10;9.03;;;4.40;99.90;;;;;;5057532;28;20188;-86
2022/11/13 06:36:16;;;;;;;11.70;7.73;;;4.40;99.90;;;;;;5075683;28;20472;-85
2022/11/13 06:38:42;;;;;;;16.10;11.77;;;4.40;99.90;;;;;;5075840;28;20819;-87
2022/11/13 06:41:10;;;;;;;13.93;8.80;;;4.40;99.90;;;;;;5058378;28;20515;-87
2022/11/13 06:43:36;;;;;;;15.83;10.03;;;4.60;99.90;;;;;;5058520;28;20463;-87
2022/11/13 06:46:07;;;;;;;13.63;8.90;;;4.50;99.90;;;;;;5058231;28;20528;-86
2022/11/13 06:48:33;;;;;;;15.77;8.93;;;4.50;99.90;;;;;;5075500;28;20196;-86
2022/11/13 06:51:04;;;;;;;11.60;9.10;;;4.50;99.90;;;;;;5076067;28;20492;-86
2022/11/13 06:53:30;;;;;;;15.33;9.50;;;4.40;99.90;;;;;;5075696;28;20180;-87
2022/11/13 06:55:57;;;;;;;15.10;9.00;;;4.40;99.90;;;;;;5057143;28;20459;-86
2022/11/13 06:58:22;;;;;;;11.53;8.07;;;4.40;99.90;;;;;;5057872;28;20428;-86
2022/11/13 07:00:48;;;;;;;14.30;7.50;;;4.50;99.90;;;;;;5075345;28;20456;-86
2022/11/13 07:03:19;;;;;;;9.80;7.03;;;4.50;99.90;;;;;;5057902;28;20181;-86
2022/11/13 07:05:45;;;;;;;17.30;9.93;;;4.50;99.90;;;;;;5055128;28;20178;-87
2022/11/13 07:08:11;;;;;;;12.13;7.80;;;4.60;99.90;;;;;;5039943;28;20437;-85
2022/11/13 07:10:37;;;;;;;17.00;8.70;;;4.60;99.90;;;;;;5072436;28;20409;-86
2022/11/13 07:13:03;;;;;;;17.63;8.53;;;4.70;99.90;;;;;;5057068;28;20436;-87
2022/11/13 07:15:32;;;;;;;18.20;9.10;;;4.70;99.90;;;;;;5074621;28;20257;-86
2022/11/13 07:18:02;;;;;;;16.87;9.73;;;4.80;99.90;;;;;;5074720;28;20466;-86
2022/11/13 07:20:28;;;;;;;15.13;8.20;;;4.80;99.90;;;;;;5065744;28;20410;-85
2022/11/13 07:22:55;;;;;;;18.70;10.00;;;4.90;99.90;;;;;;5071941;28;20427;-86
2022/11/13 07:25:21;;;;;;;15.67;10.37;;;4.90;99.90;;;;;;5071755;28;20415;-85
2022/11/13 07:27:46;;;;;;;12.17;7.97;;;5.00;99.90;;;;;;5067355;28;20423;-85
2022/11/13 07:30:12;;;;;;;15.57;9.30;;;5.10;99.90;;;;;;5074634;28;20699;-86
2022/11/13 07:32:38;;;;;;;18.27;9.70;;;5.00;99.90;;;;;;5074338;28;20299;-87
2022/11/13 07:35:04;;;;;;;14.20;8.83;;;4.90;99.90;;;;;;5074289;28;20634;-86
2022/11/13 07:37:32;;;;;;;21.93;11.03;;;5.00;99.90;;;;;;5056296;28;20210;-86
2022/11/13 07:39:58;;;;;;;16.17;9.43;;;5.00;99.90;;;;;;5063454;28;20416;-86
2022/11/13 07:42:23;;;;;;;13.47;9.90;;;4.90;99.90;;;;;;5056945;28;20424;-89
2022/11/13 07:44:49;;;;;;;15.60;9.57;;;4.90;99.90;;;;;;5074899;28;20617;-87
2022/11/13 07:47:14;;;;;;;15.90;9.37;;;4.90;99.90;;;;;;5056593;28;20533;-87
2022/11/13 07:49:40;;;;;;;12.37;8.07;;;5.00;99.90;;;;;;5074722;28;20339;-86
2022/11/13 07:52:06;;;;;;;18.90;11.27;;;5.00;99.90;;;;;;5074867;28;20192;-86
2022/11/13 07:54:32;;;;;;;16.43;10.37;;;5.10;99.90;;;;;;5057211;28;20241;-89
2022/11/13 07:56:58;;;;;;;15.47;8.50;;;5.20;99.90;;;;;;5057283;28;20246;-88
2022/11/13 07:59:24;;;;;;;16.17;8.73;;;5.30;99.90;;;;;;5074415;28;20952;-86
2022/11/13 08:01:50;;;;;;;15.03;9.50;;;5.30;99.90;;;;;;5074876;28;20736;-86
2022/11/13 08:04:15;;;;;;;17.43;9.27;;;5.40;99.90;;;;;;5074672;28;20399;-88
2022/11/13 08:06:41;;;;;;;15.60;10.00;;;5.50;99.90;;;;;;5074922;28;20647;-88
2022/11/13 08:09:07;;;;;;;17.03;10.80;;;5.60;99.90;;;;;;5061461;28;20174;-86
2022/11/13 08:11:33;;;;;;;19.33;9.07;;;5.60;99.90;;;;;;5078382;28;20482;-85
2022/11/13 08:13:59;;;;;;;15.83;8.63;;;5.60;99.90;;;;;;5060623;28;20510;-86
2022/11/13 08:16:25;;;;;;;18.90;10.27;;;5.70;99.90;;;;;;5078231;28;20516;-87
2022/11/13 08:18:51;;;;;;;19.50;10.40;;;5.80;99.90;;;;;;5060733;28;20538;-86
2022/11/13 08:21:16;;;;;;;22.93;10.40;;;5.90;99.90;;;;;;5061788;28;20444;-85
2022/11/13 08:23:42;;;;;;;16.63;9.10;;;6.00;99.90;;;;;;5078008;28;20183;-86
2022/11/13 08:26:08;;;;;;;18.13;9.00;;;6.10;99.90;;;;;;5077237;28;20176;-87
2022/11/13 08:28:35;;;;;;;18.70;9.13;;;6.20;99.90;;;;;;5076608;28;20536;-87
2022/11/13 08:31:01;;;;;;;16.10;7.60;;;6.30;99.90;;;;;;5060327;28;20483;-87
2022/11/13 08:33:28;;;;;;;20.00;8.20;;;6.20;99.90;;;;;;5077082;28;20418;-85
2022/11/13 08:35:55;;;;;;;15.50;8.83;;;6.30;99.90;;;;;;5076819;28;20815;-87
2022/11/13 08:38:20;;;;;;;19.97;9.00;;;6.40;99.90;;;;;;5060061;28;20504;-85
2022/11/13 08:40:46;;;;;;;20.83;8.53;;;6.40;99.90;;;;;;5077371;28;20930;-88
2022/11/13 08:43:12;;;;;;;19.20;9.60;;;6.40;99.90;;;;;;5076420;28;20211;-86
2022/11/13 08:45:38;;;;;;;19.70;9.57;;;6.40;99.90;;;;;;5078394;28;20431;-86
2022/11/13 08:48:04;;;;;;;21.93;8.87;;;6.50;99.90;;;;;;5076739;28;20245;-88
2022/11/13 08:50:31;;;;;;;15.20;7.33;;;6.50;99.90;;;;;;5061812;28;20181;-90
2022/11/13 08:53:02;;;;;;;17.27;8.73;;;6.60;99.90;;;;;;5060905;28;20423;-90
2022/11/13 08:55:28;;;;;;;20.07;9.17;;;6.50;99.90;;;;;;5079374;28;20418;-86
2022/11/13 08:57:58;;;;;;;19.90;9.03;;;6.60;99.90;;;;;;5076562;28;20528;-87
2022/11/13 09:00:23;;;;;;;20.67;9.40;;;6.70;99.90;;;;;;5077439;28;20285;-87
2022/11/13 09:02:54;;;;;;;15.70;9.30;;;6.70;99.90;;;;;;5077181;28;20450;-90
2022/11/13 09:05:19;;;;;;;21.30;10.13;;;6.70;99.90;;;;;;5081434;28;20180;-91
2022/11/13 09:07:45;;;;;;;16.77;9.40;;;6.70;99.90;;;;;;5062794;28;20793;-88
2022/11/13 09:10:11;;;;;;;25.23;10.67;;;6.70;99.90;;;;;;5063157;28;20186;-92
2022/11/13 09:12:37;;;;;;;20.23;10.20;;;6.70;99.90;;;;;;5081297;28;20176;-92
2022/11/13 09:15:04;;;;;;;17.70;9.17;;;6.70;99.90;;;;;;5081121;28;20419;-92
2022/11/13 09:17:29;;;;;;;21.20;11.40;;;6.70;99.90;;;;;;5063125;28;20308;-90
2022/11/13 09:19:55;;;;;;;17.83;8.67;;;6.70;99.90;;;;;;5069194;28;20469;-90
2022/11/13 09:22:21;;;;;;;24.80;12.83;;;6.80;99.90;;;;;;5088124;28;20183;-91
2022/11/13 09:24:46;;;;;;;21.13;10.00;;;6.80;99.90;;;;;;5087759;28;20166;-91
2022/11/13 09:27:12;;;;;;;15.97;9.80;;;6.90;99.90;;;;;;5086956;28;20639;-91
2022/11/13 09:29:37;;;;;;;21.97;10.97;;;7.00;99.90;;;;;;5082760;28;20176;-86
2022/11/13 09:32:03;;;;;;;17.70;10.47;;;7.00;99.90;;;;;;5083776;28;20575;-83
2022/11/13 09:34:29;;;;;;;18.40;10.40;;;7.00;99.90;;;;;;5081768;28;20207;-84
2022/11/13 09:36:55;;;;;;;22.07;10.33;;;7.10;99.90;;;;;;5083073;28;20212;-86
2022/11/13 09:39:20;;;;;;;23.50;11.53;;;7.10;99.90;;;;;;5064273;28;20182;-84
2022/11/13 09:41:52;;;;;;;21.67;10.70;;;7.20;99.90;;;;;;5080542;28;20429;-87
2022/11/13 09:44:44;;;;;;;25.60;12.00;;;7.20;99.90;;;;;;5078544;28;20210;-85
2022/11/13 09:47:18;;;;;;;21.17;11.10;;;7.20;99.90;;;;;;5079146;28;20410;-87
2022/11/13 09:49:48;;;;;;;19.73;10.67;;;7.30;99.90;;;;;;5079285;28;20452;-87
2022/11/13 09:52:20;;;;;;;21.83;13.03;;;7.30;99.90;;;;;;5061279;28;20458;-85
2022/11/13 09:54:48;;;;;;;23.00;11.13;;;7.30;99.90;;;;;;5061105;28;20493;-86
2022/11/13 09:57:35;;;;;;;21.43;12.57;;;7.40;99.90;;;;;;5061189;28;20478;-85
2022/11/13 10:00:11;;;;;;;20.10;11.87;;;7.40;99.90;;;;;;5079049;28;20459;-86
2022/11/13 10:03:22;;;;;;;19.77;10.93;;;7.30;99.90;;;;;;5078902;28;20425;-85
2022/11/13 10:06:17;;;;;;;23.13;12.37;;;7.20;99.90;;;;;;5079219;28;20410;-86
2022/11/13 10:08:55;;;;;;;22.47;11.20;;;7.20;99.90;;;;;;5061124;28;20932;-86
2022/11/13 10:11:54;;;;;;;18.57;11.30;;;7.20;99.90;;;;;;5079260;28;20941;-85
2022/11/13 10:14:26;;;;;;;23.77;10.40;;;7.10;99.90;;;;;;5079229;28;20421;-85
2022/11/13 10:16:57;;;;;;;17.40;9.60;;;7.10;99.90;;;;;;5078666;28;20622;-85
2022/11/13 10:19:26;;;;;;;17.80;10.80;;;7.10;99.90;;;;;;5079107;28;20433;-85
2022/11/13 10:22:05;;;;;;;18.90;12.40;;;7.10;99.90;;;;;;5079065;28;20427;-85
2022/11/13 10:24:44;;;;;;;19.20;11.90;;;7.20;99.90;;;;;;5079107;28;20425;-86
2022/11/13 10:27:12;;;;;;;20.50;11.83;;;7.30;99.90;;;;;;5078970;28;20425;-86
2022/11/13 10:29:38;;;;;;;23.20;13.87;;;7.30;99.90;;;;;;5077772;28;20501;-85
2022/11/13 10:32:29;;;;;;;21.47;11.63;;;7.20;99.90;;;;;;5075424;28;20921;-87
2022/11/13 10:35:04;;;;;;;22.87;13.00;;;7.30;99.90;;;;;;5075866;28;20395;-85
2022/11/13 10:38:01;;;;;;;17.20;10.50;;;7.20;99.90;;;;;;5075735;28;20479;-85
2022/11/13 10:40:33;;;;;;;19.10;12.33;;;7.20;99.90;;;;;;5073739;28;20472;-86
2022/11/13 10:43:14;;;;;;;17.97;10.47;;;7.20;99.90;;;;;;5075552;28;20427;-86
2022/11/13 10:45:42;;;;;;;24.73;12.27;;;7.20;99.90;;;;;;5075087;28;20585;-85
2022/11/13 10:48:22;;;;;;;21.17;13.10;;;7.20;99.90;;;;;;5059968;28;20415;-84
2022/11/13 10:50:57;;;;;;;23.83;13.77;;;7.20;99.90;;;;;;5055242;28;20425;-85
2022/11/13 10:53:25;;;;;;;23.43;11.93;;;7.20;99.90;;;;;;5055191;28;20427;-86
2022/11/13 10:55:54;;;;;;;20.30;10.93;;;7.20;99.90;;;;;;5055128;28;20398;-86
2022/11/13 10:58:20;;;;;;;23.43;12.63;;;7.30;99.90;;;;;;5055456;28;20422;-87
2022/11/13 11:00:48;;;;;;;20.70;10.90;;;7.30;99.90;;;;;;5054969;28;20458;-85
2022/11/13 11:03:32;;;;;;;22.10;13.17;;;7.30;99.90;;;;;;5063383;28;20174;-85
2022/11/13 11:06:02;;;;;;;21.33;12.73;;;7.30;99.90;;;;;;5073691;28;20428;-85
2022/11/13 11:08:33;;;;;;;23.40;13.07;;;7.40;99.90;;;;;;5074660;28;20503;-84
2022/11/13 11:14:21;;;;;;;20.07;11.77;;;7.50;99.90;;;;;;5073045;28;20456;-86
2022/11/13 11:16:49;;;;;;;23.93;13.57;;;7.50;99.90;;;;;;5074259;28;20835;-86
2022/11/13 11:19:15;;;;;;;24.37;13.00;;;7.60;99.90;;;;;;5074771;28;20415;-86
2022/11/13 11:21:45;;;;;;;22.00;11.43;;;7.70;99.90;;;;;;5073444;28;20963;-85
2022/11/13 11:24:20;;;;;;;24.40;12.70;;;7.70;99.90;;;;;;5074584;28;20419;-85
2022/11/13 11:27:00;;;;;;;17.13;9.57;;;7.70;99.90;;;;;;5074618;28;20471;-84
2022/11/13 11:30:03;;;;;;;18.10;9.50;;;7.70;99.90;;;;;;5074532;28;20425;-83
2022/11/13 11:32:48;;;;;;;16.17;10.70;;;7.80;99.90;;;;;;5050857;28;20425;-86
2022/11/13 11:35:26;;;;;;;14.57;9.47;;;7.80;99.90;;;;;;5070618;28;20778;-87
2022/11/13 11:38:07;;;;;;;16.80;9.83;;;7.90;99.90;;;;;;5073925;28;21010;-87
2022/11/13 11:40:39;;;;;;;17.20;10.50;;;8.00;99.90;;;;;;5073680;28;20846;-88
2022/11/13 11:43:33;;;;;;;15.30;8.57;;;8.10;99.90;;;;;;5072903;28;20430;-89
2022/11/13 11:45:58;;;;;;;15.20;11.83;;;8.10;99.90;;;;;;5073361;28;20928;-89
2022/11/13 11:48:28;;;;;;;15.30;10.87;;;8.20;99.90;;;;;;5073636;28;20414;-90
2022/11/13 11:50:53;;;;;;;13.23;9.67;;;8.20;99.90;;;;;;5056252;28;20168;-89
2022/11/13 11:53:44;;;;;;;14.77;10.40;;;8.20;99.90;;;;;;5073351;28;20418;-91
2022/11/13 11:56:31;;;;;;;17.00;10.23;;;8.20;99.90;;;;;;5055426;28;20218;-88
2022/11/13 11:59:21;;;;;;;18.00;9.00;;;8.20;99.90;;;;;;5073788;28;20517;-85
2022/11/13 12:02:20;;;;;;;14.33;8.43;;;8.10;99.90;;;;;;5073012;28;20531;-87
2022/11/13 12:05:18;;;;;;;16.40;10.33;;;8.10;99.90;;;;;;5073404;28;20423;-86
2022/11/13 12:07:51;;;;;;;15.73;9.73;;;8.20;99.90;;;;;;5027924;28;20430;-87
2022/11/13 12:10:49;;;;;;;17.60;9.53;;;8.30;99.90;;;;;;5073578;28;20443;-92
2022/11/13 12:13:40;;;;;;;13.37;8.80;;;8.40;99.90;;;;;;5067907;28;20467;-83
2022/11/13 12:16:38;;;;;;;13.20;9.23;;;8.40;99.90;;;;;;5072810;28;20462;-87
2022/11/13 12:19:21;;;;;;;13.20;7.50;;;8.40;99.90;;;;;;5071450;28;20411;-85
2022/11/13 12:22:06;;;;;;;11.33;7.73;;;8.40;99.90;;;;;;5073287;28;20413;-86
2022/11/13 12:24:50;;;;;;;16.00;8.80;;;8.50;99.90;;;;;;5072915;28;20422;-85
2022/11/13 12:27:28;;;;;;;18.53;9.17;;;8.50;99.90;;;;;;5073065;28;20800;-86
2022/11/13 12:30:22;;;;;;;12.23;7.90;;;8.50;99.90;;;;;;5073926;28;20420;-89
2022/11/13 12:33:17;;;;;;;10.03;7.97;;;8.50;99.90;;;;;;5072765;28;20422;-87
2022/11/13 12:35:46;;;;;;;14.00;7.60;;;8.60;99.90;;;;;;5074705;28;20425;-85
2022/11/13 12:38:24;;;;;;;15.20;8.40;;;8.60;99.90;;;;;;5074321;28;20420;-86
2022/11/13 12:40:56;;;;;;;15.03;7.63;;;8.60;99.90;;;;;;5072699;28;20422;-91
2022/11/13 12:44:05;;;;;;;12.47;8.57;;;8.60;99.90;;;;;;5054812;28;20449;-88
2022/11/13 12:46:39;;;;;;;14.30;8.83;;;8.70;99.90;;;;;;5070693;28;20498;-86
2022/11/13 12:49:26;;;;;;;14.37;8.83;;;8.70;99.90;;;;;;5072579;28;20513;-86
2022/11/13 12:52:05;;;;;;;19.27;8.13;;;8.70;99.90;;;;;;5087701;28;20927;-91
2022/11/13 12:54:33;;;;;;;14.17;8.30;;;8.80;99.90;;;;;;5073823;28;20465;-87
2022/11/13 12:57:12;;;;;;;13.13;8.70;;;8.80;99.90;;;;;;5075940;28;20857;-85
2022/11/13 12:59:45;;;;;;;18.23;8.70;;;8.80;99.90;;;;;;5076422;28;20446;-89
2022/11/13 13:02:13;;;;;;;12.27;8.47;;;8.80;99.90;;;;;;5074569;28;20426;-85